KGNB

Granby-Grand County Airport

Granby, Colorado, USA
METAR KGNB 191510Z AUTO 00000KT 7SM OVC002 07/07 A3043 RMK AO2 T00670066
Observed Flight Rules
Aug-19 @ 15:10 UTC (29 minutes ago) Instrument Flight Rules
Visibility Clouds
7 miles
  • Overcast at 200' AGL
Temperatures Readings
Current 7°C / 45°F
Dewpoint 7°C / 45°F
Humidity 100%
Altimeter 30.43" Hg
Pressure 1030 hPa
Elevation 2500
METAR KGNB 191510Z AUTO 00000KT 7SM OVC002 07/07 A3043 RMK AO2 T00670066
Observed Flight Rules
Aug-19 @ 15:10 UTC
(29 minutes ago)
LIFR
Clouds
  • Overcast at 200' AGL
Temperature Dewpoint
7°C / 45°F 7°C / 45°F
Humidity Altimeter Pressure
100% 30.43" Hg 1030 hPa